Time;durP1;ratioP1;P1;durP2;ratioP2;P2;SDS_P1;SDS_P2;PMS_P1;PMS_P2;Temp;Humidity;BMP_temperature;BMP_pressure;BME280_temperature;BME280_humidity;BME280_pressure;Samples;Min_cycle;Max_cycle;Signal;HPM_P1;HPM_P2
2022/08/17 00:00:12;;;;;;;12.27;9.83;;;;;;;;;;5053238;28;20214;-75
2022/08/17 00:03:01;;;;;;;12.53;10.20;;;;;;;;;;5070062;28;20190;-75
2022/08/17 00:05:29;;;;;;;14.40;9.80;;;;;;;;;;5050035;28;20236;-75
2022/08/17 00:07:57;;;;;;;10.40;9.00;;;;;;;;;;5050250;28;20857;-75
2022/08/17 00:10:24;;;;;;;14.60;10.93;;;;;;;;;;5050599;28;20198;-75
2022/08/17 00:12:51;;;;;;;13.73;9.00;;;;;;;;;;5010853;28;20675;-75
2022/08/17 00:15:19;;;;;;;14.67;9.27;;;;;;;;;;5038066;28;20205;-75
2022/08/17 00:17:49;;;;;;;10.93;8.23;;;;;;;;;;5029888;28;20193;-75
2022/08/17 00:20:16;;;;;;;10.70;8.90;;;;;;;;;;5047309;28;20191;-75
2022/08/17 00:22:45;;;;;;;12.90;8.77;;;;;;;;;;5049917;28;20197;-75
2022/08/17 00:25:14;;;;;;;9.53;8.47;;;;;;;;;;5050125;28;20210;-75
2022/08/17 00:27:40;;;;;;;11.87;10.13;;;;;;;;;;5050491;28;20206;-75
2022/08/17 00:30:08;;;;;;;12.90;8.80;;;;;;;;;;5030427;28;20525;-75
2022/08/17 00:32:36;;;;;;;9.77;8.63;;;;;;;;;;5050009;28;20669;-75
2022/08/17 00:35:23;;;;;;;13.47;10.33;;;;;;;;;;5038633;28;20203;-74
2022/08/17 00:37:51;;;;;;;13.57;10.37;;;;;;;;;;5048399;28;20187;-75
2022/08/17 00:40:17;;;;;;;13.20;11.17;;;;;;;;;;5048655;28;20237;-74
2022/08/17 00:42:44;;;;;;;14.27;10.47;;;;;;;;;;5050171;28;20193;-74
2022/08/17 00:45:12;;;;;;;11.20;10.00;;;;;;;;;;5030295;28;20194;-74
2022/08/17 00:47:39;;;;;;;14.67;10.13;;;;;;;;;;5048558;28;20286;-75
2022/08/17 00:50:07;;;;;;;12.83;10.97;;;;;;;;;;5048101;28;20195;-75
2022/08/17 00:52:36;;;;;;;15.03;10.63;;;;;;;;;;5015602;28;20198;-75
2022/08/17 00:55:03;;;;;;;14.17;10.47;;;;;;;;;;5048260;28;20219;-75
2022/08/17 00:57:30;;;;;;;14.83;9.67;;;;;;;;;;5048556;28;20233;-75
2022/08/17 01:00:01;;;;;;;11.77;9.43;;;;;;;;;;5044648;28;20190;-75
2022/08/17 01:02:39;;;;;;;14.47;9.70;;;;;;;;;;5032318;28;20229;-75
2022/08/17 01:05:13;;;;;;;13.07;10.50;;;;;;;;;;5031580;28;20202;-75
2022/08/17 01:07:40;;;;;;;13.30;9.63;;;;;;;;;;5069180;28;20240;-75
2022/08/17 01:10:07;;;;;;;12.13;8.90;;;;;;;;;;5051638;28;20899;-75
2022/08/17 01:12:55;;;;;;;11.60;9.57;;;;;;;;;;5037866;28;20194;-75
2022/08/17 01:15:22;;;;;;;14.47;8.83;;;;;;;;;;5069043;28;20653;-75
2022/08/17 01:17:49;;;;;;;10.20;8.53;;;;;;;;;;5059657;28;20674;-75
2022/08/17 01:20:15;;;;;;;11.30;9.77;;;;;;;;;;5056074;28;20220;-75
2022/08/17 01:22:42;;;;;;;9.40;7.63;;;;;;;;;;5051428;28;20198;-75
2022/08/17 01:25:09;;;;;;;10.00;8.47;;;;;;;;;;5051570;28;20586;-75
2022/08/17 01:27:53;;;;;;;12.67;9.20;;;;;;;;;;5040034;28;20440;-76
2022/08/17 01:30:20;;;;;;;11.57;8.47;;;;;;;;;;5069112;28;20815;-75
2022/08/17 01:33:10;;;;;;;13.43;10.10;;;;;;;;;;5068774;28;20281;-75
2022/08/17 01:35:37;;;;;;;18.20;9.20;;;;;;;;;;5068995;28;20190;-75
2022/08/17 01:38:04;;;;;;;12.73;9.10;;;;;;;;;;5051145;28;20229;-75
2022/08/17 01:40:38;;;;;;;17.20;8.47;;;;;;;;;;5044826;28;20946;-75
2022/08/17 01:43:21;;;;;;;10.23;7.73;;;;;;;;;;5044584;28;20193;-75
2022/08/17 01:45:49;;;;;;;12.77;8.83;;;;;;;;;;5039092;28;20186;-75
2022/08/17 01:48:30;;;;;;;11.63;8.17;;;;;;;;;;5052808;28;20653;-75
2022/08/17 01:50:57;;;;;;;10.10;8.47;;;;;;;;;;5050995;28;20186;-75
2022/08/17 01:53:25;;;;;;;14.83;8.47;;;;;;;;;;5060514;28;20267;-75
2022/08/17 01:55:54;;;;;;;10.07;7.60;;;;;;;;;;5034844;28;20174;-75
2022/08/17 01:58:20;;;;;;;9.97;7.77;;;;;;;;;;5051304;28;20248;-74
2022/08/17 02:00:49;;;;;;;10.83;7.83;;;;;;;;;;5069098;28;20527;-75
2022/08/17 02:03:27;;;;;;;12.60;7.63;;;;;;;;;;5052801;28;20186;-75
2022/08/17 02:05:54;;;;;;;8.57;7.10;;;;;;;;;;5068433;28;20284;-75
2022/08/17 02:08:20;;;;;;;9.43;7.23;;;;;;;;;;5068914;28;20230;-75
2022/08/17 02:11:06;;;;;;;8.53;7.27;;;;;;;;;;5068431;28;20251;-75
2022/08/17 02:13:36;;;;;;;10.23;7.30;;;;;;;;;;5051370;28;20535;-75
2022/08/17 02:16:03;;;;;;;11.13;8.40;;;;;;;;;;5051220;28;20281;-75
2022/08/17 02:18:30;;;;;;;10.13;7.43;;;;;;;;;;5068590;28;20283;-75
2022/08/17 02:20:57;;;;;;;8.77;6.77;;;;;;;;;;5071614;28;20189;-75
2022/08/17 02:23:24;;;;;;;9.77;7.17;;;;;;;;;;5072740;28;20277;-75
2022/08/17 02:25:51;;;;;;;12.47;7.53;;;;;;;;;;5054539;28;20269;-74
2022/08/17 02:28:17;;;;;;;11.87;8.13;;;;;;;;;;5054862;28;20246;-75
2022/08/17 02:30:45;;;;;;;11.53;8.50;;;;;;;;;;5072416;28;20289;-75
2022/08/17 02:33:31;;;;;;;11.67;8.03;;;;;;;;;;5054668;28;20200;-75
2022/08/17 02:36:09;;;;;;;11.20;7.80;;;;;;;;;;5069299;28;20584;-75
2022/08/17 02:38:38;;;;;;;11.17;7.53;;;;;;;;;;5057137;28;20213;-75
2022/08/17 02:41:05;;;;;;;12.27;7.60;;;;;;;;;;5060684;28;20198;-75
2022/08/17 02:43:32;;;;;;;9.60;7.27;;;;;;;;;;5054088;28;20198;-75
2022/08/17 02:46:00;;;;;;;10.57;7.37;;;;;;;;;;5055513;28;20846;-75
2022/08/17 02:48:28;;;;;;;11.20;9.27;;;;;;;;;;5052900;28;20588;-75
2022/08/17 02:51:16;;;;;;;13.07;8.00;;;;;;;;;;5053897;28;20653;-77
2022/08/17 02:57:36;;;;;;;12.60;9.20;;;;;;;;;;5045103;28;20179;-75
2022/08/17 03:00:18;;;;;;;10.77;9.00;;;;;;;;;;5056330;28;20272;-76
2022/08/17 03:03:43;;;;;;;14.87;10.40;;;;;;;;;;5035490;28;20218;-76
2022/08/17 03:06:15;;;;;;;13.77;10.70;;;;;;;;;;5065581;28;20226;-75
2022/08/17 03:08:42;;;;;;;11.90;8.77;;;;;;;;;;5071397;28;20248;-75
2022/08/17 03:11:09;;;;;;;11.47;8.70;;;;;;;;;;5053818;28;20285;-75
2022/08/17 03:13:36;;;;;;;11.30;9.70;;;;;;;;;;5071448;28;20206;-75
2022/08/17 03:16:03;;;;;;;13.23;9.57;;;;;;;;;;5071872;28;20186;-75
2022/08/17 03:18:29;;;;;;;10.87;8.87;;;;;;;;;;5071764;28;20182;-75
2022/08/17 03:20:57;;;;;;;12.87;9.70;;;;;;;;;;5053500;28;20526;-75
2022/08/17 03:23:24;;;;;;;11.63;8.83;;;;;;;;;;5063467;28;20689;-75
2022/08/17 03:25:51;;;;;;;14.03;9.80;;;;;;;;;;5064650;28;20585;-75
2022/08/17 03:28:18;;;;;;;14.10;9.90;;;;;;;;;;5046706;28;20198;-74
2022/08/17 03:30:45;;;;;;;10.63;9.00;;;;;;;;;;5070252;28;20289;-75
2022/08/17 03:33:12;;;;;;;10.10;7.97;;;;;;;;;;5071151;28;20288;-75
2022/08/17 03:35:39;;;;;;;13.97;9.27;;;;;;;;;;5070989;28;20210;-75
2022/08/17 03:38:06;;;;;;;10.87;8.80;;;;;;;;;;5053528;28;20194;-75
2022/08/17 03:40:33;;;;;;;10.73;8.93;;;;;;;;;;5053591;28;20206;-75
2022/08/17 03:43:20;;;;;;;10.13;8.33;;;;;;;;;;5071259;28;20194;-75
2022/08/17 03:57:18;;;;;;;9.83;8.80;;;;;;;;;;5070876;28;20535;-75
2022/08/17 03:59:45;;;;;;;11.13;8.47;;;;;;;;;;5065880;28;20215;-75
2022/08/17 04:02:23;;;;;;;12.93;9.10;;;;;;;;;;5062142;28;20261;-74
2022/08/17 04:04:50;;;;;;;12.53;8.30;;;;;;;;;;5053079;28;20241;-73
2022/08/17 04:07:22;;;;;;;9.47;7.93;;;;;;;;;;5070481;28;20236;-76
2022/08/17 04:09:49;;;;;;;10.70;7.93;;;;;;;;;;5067921;28;20728;-77
2022/08/17 04:12:17;;;;;;;10.13;7.80;;;;;;;;;;5052901;28;20550;-77
2022/08/17 04:14:44;;;;;;;9.07;7.17;;;;;;;;;;5052614;28;20627;-77
2022/08/17 04:17:20;;;;;;;10.93;8.40;;;;;;;;;;5070586;28;20217;-77
2022/08/17 04:20:05;;;;;;;10.87;8.73;;;;;;;;;;5041670;28;20174;-77
2022/08/17 04:22:31;;;;;;;10.47;8.20;;;;;;;;;;5052979;28;20213;-77
2022/08/17 04:25:16;;;;;;;8.93;7.47;;;;;;;;;;5070530;28;20177;-76
2022/08/17 04:27:43;;;;;;;8.60;7.70;;;;;;;;;;5052947;28;20679;-77
2022/08/17 04:30:10;;;;;;;10.70;8.37;;;;;;;;;;5070480;28;20259;-76
2022/08/17 04:32:57;;;;;;;10.30;8.30;;;;;;;;;;5070466;28;20194;-77
2022/08/17 04:35:42;;;;;;;13.47;8.93;;;;;;;;;;5041679;28;20236;-76
2022/08/17 04:38:10;;;;;;;17.10;9.40;;;;;;;;;;5052832;28;20298;-76
2022/08/17 04:43:22;;;;;;;17.27;8.47;;;;;;;;;;5044851;28;20190;-74
2022/08/17 04:45:49;;;;;;;21.97;9.63;;;;;;;;;;5070140;28;20277;-77
2022/08/17 04:48:22;;;;;;;16.23;9.77;;;;;;;;;;5069779;28;20239;-71
2022/08/17 04:50:55;;;;;;;13.97;10.73;;;;;;;;;;5070220;28;20190;-74
2022/08/17 04:53:22;;;;;;;16.10;10.67;;;;;;;;;;5052479;28;20277;-75
2022/08/17 04:55:50;;;;;;;13.70;11.60;;;;;;;;;;5069629;28;20581;-74
2022/08/17 04:58:17;;;;;;;15.43;13.83;;;;;;;;;;5069817;28;20225;-74
2022/08/17 05:00:44;;;;;;;15.67;12.90;;;;;;;;;;5052092;28;20190;-71
2022/08/17 05:03:28;;;;;;;15.23;13.63;;;;;;;;;;5069646;28;20189;-74
2022/08/17 05:05:54;;;;;;;14.93;12.57;;;;;;;;;;5063199;28;20226;-80
2022/08/17 05:08:21;;;;;;;15.87;12.30;;;;;;;;;;5049798;28;20194;-69
2022/08/17 05:10:48;;;;;;;16.77;12.93;;;;;;;;;;5049385;28;20221;-72
2022/08/17 05:13:16;;;;;;;14.07;12.57;;;;;;;;;;5031042;28;20796;-72
2022/08/17 05:15:43;;;;;;;12.77;11.47;;;;;;;;;;5028476;28;20305;-72
2022/08/17 05:18:13;;;;;;;12.57;11.00;;;;;;;;;;5030474;28;20659;-73
2022/08/17 05:20:40;;;;;;;12.80;10.93;;;;;;;;;;5028248;28;20215;-73
2022/08/17 05:23:08;;;;;;;12.93;11.70;;;;;;;;;;5013707;28;20511;-72
2022/08/17 05:25:37;;;;;;;12.93;11.30;;;;;;;;;;5048961;28;20854;-71
2022/08/17 05:28:04;;;;;;;16.13;11.50;;;;;;;;;;5049103;28;20198;-70
2022/08/17 05:30:31;;;;;;;15.20;12.60;;;;;;;;;;5049769;28;20195;-76
2022/08/17 05:33:03;;;;;;;16.50;12.97;;;;;;;;;;5028032;28;20242;-73
2022/08/17 05:35:31;;;;;;;16.47;13.03;;;;;;;;;;5042719;28;20305;-72
2022/08/17 05:37:58;;;;;;;14.00;12.40;;;;;;;;;;5027802;28;20226;-72
2022/08/17 05:40:25;;;;;;;15.00;13.07;;;;;;;;;;5048998;28;20646;-72
2022/08/17 05:43:10;;;;;;;15.73;13.20;;;;;;;;;;5002635;28;20187;-71
2022/08/17 05:45:41;;;;;;;13.67;12.27;;;;;;;;;;5042540;28;20286;-72
2022/08/17 05:48:22;;;;;;;13.10;11.77;;;;;;;;;;5047613;28;20187;-72
2022/08/17 05:51:47;;;;;;;14.17;11.50;;;;;;;;;;5048914;28;20214;-74
2022/08/17 05:54:17;;;;;;;14.67;13.13;;;;;;;;;;4967601;28;23047;-73
2022/08/17 05:56:43;;;;;;;15.70;13.33;;;;;;;;;;4967911;28;20197;-74
2022/08/17 05:59:14;;;;;;;15.23;12.63;;;;;;;;;;4998184;28;20367;-74
2022/08/17 06:01:51;;;;;;;14.77;12.93;;;;;;;;;;5047442;28;20901;-72
2022/08/17 06:04:30;;;;;;;20.10;12.50;;;;;;;;;;5048433;28;20229;-73
2022/08/17 06:07:21;;;;;;;13.60;11.83;;;;;;;;;;5050105;28;20225;-78
2022/08/17 06:09:49;;;;;;;14.13;12.43;;;;;;;;;;5062195;28;20283;-78
2022/08/17 06:12:36;;;;;;;13.27;11.73;;;;;;;;;;5043444;28;20657;-77
2022/08/17 06:15:03;;;;;;;12.87;11.03;;;;;;;;;;5043407;28;20202;-75
2022/08/17 06:17:47;;;;;;;13.33;10.73;;;;;;;;;;5044522;28;20712;-76
2022/08/17 06:20:14;;;;;;;15.97;12.30;;;;;;;;;;5044552;28;20277;-74
2022/08/17 06:22:46;;;;;;;16.67;10.97;;;;;;;;;;5044285;28;20190;-76
2022/08/17 06:25:13;;;;;;;11.90;10.20;;;;;;;;;;5043705;28;20186;-72
2022/08/17 06:27:41;;;;;;;11.10;9.90;;;;;;;;;;5045493;28;20198;-77
2022/08/17 06:37:50;;;;;;;10.97;8.50;;;;;;;;;;5040405;28;20202;-74
2022/08/17 06:40:44;;;;;;;9.63;8.63;;;;;;;;;;5064089;28;20197;-73
2022/08/17 06:44:17;;;;;;;9.33;7.93;;;;;;;;;;5015720;28;20258;-74
2022/08/17 06:52:11;;;;;;;10.47;7.63;;;;;;;;;;5018293;28;20194;-74
2022/08/17 06:55:00;;;;;;;7.70;6.90;;;;;;;;;;5017732;28;20227;-82
2022/08/17 06:57:28;;;;;;;7.77;6.93;;;;;;;;;;5018911;28;20196;-70
2022/08/17 06:59:57;;;;;;;7.97;6.53;;;;;;;;;;5008473;28;20204;-78
2022/08/17 07:02:44;;;;;;;8.80;6.73;;;;;;;;;;5017507;28;20191;-71
2022/08/17 07:05:19;;;;;;;8.80;6.60;;;;;;;;;;5017110;28;20274;-73
2022/08/17 07:08:13;;;;;;;11.10;6.50;;;;;;;;;;5018728;28;20566;-72
2022/08/17 07:10:50;;;;;;;7.77;6.20;;;;;;;;;;5019114;28;20222;-69
2022/08/17 07:13:17;;;;;;;7.63;5.87;;;;;;;;;;4996345;28;20198;-72
2022/08/17 07:15:43;;;;;;;8.63;5.90;;;;;;;;;;5021560;28;20286;-76
2022/08/17 07:18:11;;;;;;;6.63;5.63;;;;;;;;;;5005521;28;20796;-71
2022/08/17 07:20:39;;;;;;;7.37;5.73;;;;;;;;;;5044236;28;20217;-74
2022/08/17 07:23:08;;;;;;;6.43;5.33;;;;;;;;;;5049502;28;20288;-69
2022/08/17 07:25:52;;;;;;;7.03;5.77;;;;;;;;;;5040878;28;20666;-72
2022/08/17 07:28:21;;;;;;;7.37;6.10;;;;;;;;;;5057729;28;20294;-75
2022/08/17 07:30:50;;;;;;;7.13;5.60;;;;;;;;;;5055958;28;20210;-73
2022/08/17 07:33:19;;;;;;;9.20;6.03;;;;;;;;;;5053235;28;20196;-72
2022/08/17 07:35:47;;;;;;;7.20;5.10;;;;;;;;;;5045775;28;20206;-70
2022/08/17 07:38:18;;;;;;;6.07;5.00;;;;;;;;;;5063246;28;20862;-71
2022/08/17 07:41:02;;;;;;;6.03;5.17;;;;;;;;;;5049348;28;20553;-70
2022/08/17 07:43:35;;;;;;;8.27;5.80;;;;;;;;;;5034614;28;20198;-67
2022/08/17 07:49:09;;;;;;;5.60;5.10;;;;;;;;;;5057804;28;20863;-66
2022/08/17 07:51:43;;;;;;;6.23;5.33;;;;;;;;;;5058396;28;20697;-68
2022/08/17 07:54:29;;;;;;;8.20;5.37;;;;;;;;;;5063466;28;20192;-67
2022/08/17 07:57:00;;;;;;;11.23;5.30;;;;;;;;;;5060603;28;20863;-68
2022/08/17 07:59:31;;;;;;;5.80;5.13;;;;;;;;;;5036127;28;20793;-67
2022/08/17 08:02:04;;;;;;;5.83;5.33;;;;;;;;;;5043379;28;20202;-68
2022/08/17 08:04:58;;;;;;;5.47;4.97;;;;;;;;;;5060134;28;20534;-68
2022/08/17 08:07:30;;;;;;;6.23;5.30;;;;;;;;;;5051740;28;20225;-68
2022/08/17 08:09:57;;;;;;;6.23;4.80;;;;;;;;;;5012190;28;20203;-68
2022/08/17 08:12:24;;;;;;;8.53;5.40;;;;;;;;;;5032667;28;20205;-66
2022/08/17 08:14:59;;;;;;;5.70;5.20;;;;;;;;;;5056379;28;20218;-67
2022/08/17 08:17:33;;;;;;;7.67;5.27;;;;;;;;;;5057510;28;20200;-67
2022/08/17 08:20:00;;;;;;;5.97;4.90;;;;;;;;;;5055314;28;20219;-67
2022/08/17 08:22:52;;;;;;;9.70;5.43;;;;;;;;;;5042939;28;20563;-68
2022/08/17 08:25:45;;;;;;;6.67;5.47;;;;;;;;;;5054415;28;20258;-67
2022/08/17 08:28:27;;;;;;;6.00;5.37;;;;;;;;;;5028764;28;20190;-67
2022/08/17 08:31:12;;;;;;;5.87;5.30;;;;;;;;;;5063723;28;20312;-68
2022/08/17 08:33:53;;;;;;;7.10;5.10;;;;;;;;;;5045873;28;20190;-67
2022/08/17 08:36:23;;;;;;;7.23;5.73;;;;;;;;;;5061020;28;20300;-67
2022/08/17 08:39:20;;;;;;;7.00;5.93;;;;;;;;;;5057926;28;20182;-73
2022/08/17 08:42:06;;;;;;;6.13;5.53;;;;;;;;;;5022510;28;20309;-71
2022/08/17 08:44:33;;;;;;;6.73;5.60;;;;;;;;;;5056506;28;21030;-72
2022/08/17 08:47:31;;;;;;;6.93;5.40;;;;;;;;;;5044803;28;20197;-78
2022/08/17 08:50:14;;;;;;;6.20;5.40;;;;;;;;;;5037100;28;20187;-74
2022/08/17 08:53:01;;;;;;;6.10;5.50;;;;;;;;;;5060993;28;20204;-70
2022/08/17 08:56:00;;;;;;;6.57;5.40;;;;;;;;;;5054944;28;20236;-73
2022/08/17 08:58:43;;;;;;;7.07;5.60;;;;;;;;;;5056489;28;20198;-68
2022/08/17 09:01:19;;;;;;;6.77;5.30;;;;;;;;;;5049306;28;20272;-69
2022/08/17 09:03:55;;;;;;;8.17;5.20;;;;;;;;;;5062355;28;20288;-70
2022/08/17 09:06:45;;;;;;;6.50;5.90;;;;;;;;;;5051047;28;20222;-71
2022/08/17 09:09:28;;;;;;;5.90;5.30;;;;;;;;;;5009699;28;20245;-72
2022/08/17 09:12:04;;;;;;;6.93;5.47;;;;;;;;;;5036302;28;20641;-70
2022/08/17 09:14:35;;;;;;;5.63;5.00;;;;;;;;;;5032806;28;20266;-71
2022/08/17 09:17:18;;;;;;;7.27;5.47;;;;;;;;;;5034111;28;20604;-71
2022/08/17 09:19:47;;;;;;;9.70;5.73;;;;;;;;;;5037247;28;20190;-71
2022/08/17 09:22:25;;;;;;;8.83;5.77;;;;;;;;;;5060321;28;20728;-73
2022/08/17 09:24:55;;;;;;;8.33;5.37;;;;;;;;;;5040773;28;20199;-72
2022/08/17 09:27:28;;;;;;;9.03;5.50;;;;;;;;;;5024971;28;20191;-71
2022/08/17 09:29:56;;;;;;;9.90;6.10;;;;;;;;;;5028600;28;22016;-70
2022/08/17 09:32:27;;;;;;;7.97;6.17;;;;;;;;;;5048336;28;20190;-70
2022/08/17 09:34:55;;;;;;;6.27;5.60;;;;;;;;;;5058558;28;21028;-74
2022/08/17 09:37:41;;;;;;;6.70;5.73;;;;;;;;;;5057193;28;20251;-70
2022/08/17 09:40:14;;;;;;;6.57;5.53;;;;;;;;;;5057742;28;20845;-73
2022/08/17 09:42:44;;;;;;;6.30;5.67;;;;;;;;;;5057042;28;20283;-76
2022/08/17 09:45:22;;;;;;;5.90;5.30;;;;;;;;;;5041414;28;20789;-71
2022/08/17 09:47:54;;;;;;;7.07;6.03;;;;;;;;;;5040039;28;20191;-72
2022/08/17 09:50:23;;;;;;;7.70;6.17;;;;;;;;;;5058709;28;20186;-72
2022/08/17 09:53:09;;;;;;;6.73;6.07;;;;;;;;;;5056120;28;20277;-74
2022/08/17 09:55:56;;;;;;;6.90;5.97;;;;;;;;;;5054113;28;20246;-77
2022/08/17 09:58:26;;;;;;;8.40;5.80;;;;;;;;;;5046309;28;20194;-77
2022/08/17 10:01:00;;;;;;;8.83;6.07;;;;;;;;;;5035271;28;20209;-77
2022/08/17 10:03:33;;;;;;;6.70;6.10;;;;;;;;;;5052640;28;20190;-71
2022/08/17 10:06:19;;;;;;;7.80;5.93;;;;;;;;;;5041716;28;20236;-71
2022/08/17 10:09:02;;;;;;;6.83;6.13;;;;;;;;;;5026813;28;20233;-71
2022/08/17 10:14:23;;;;;;;8.30;5.80;;;;;;;;;;5032438;28;20190;-72
2022/08/17 10:17:28;;;;;;;6.73;6.07;;;;;;;;;;5044957;28;20214;-71
2022/08/17 10:19:58;;;;;;;7.07;6.37;;;;;;;;;;5055496;28;20186;-78
2022/08/17 10:28:39;;;;;;;5.67;5.07;;;;;;;;;;5046842;28;20174;-78
2022/08/17 10:31:07;;;;;;;6.90;6.17;;;;;;;;;;5050108;28;20226;-77
2022/08/17 10:33:55;;;;;;;6.33;5.70;;;;;;;;;;5045368;28;20190;-78
2022/08/17 10:36:28;;;;;;;7.90;6.00;;;;;;;;;;5061392;28;20791;-75
2022/08/17 10:39:12;;;;;;;6.33;5.73;;;;;;;;;;5033877;28;20389;-69
2022/08/17 10:41:40;;;;;;;7.50;5.63;;;;;;;;;;5059761;28;20198;-79
2022/08/17 10:44:11;;;;;;;6.27;5.60;;;;;;;;;;5033896;28;20224;-79
2022/08/17 10:47:05;;;;;;;7.17;5.67;;;;;;;;;;5041424;28;20214;-75
2022/08/17 10:49:33;;;;;;;6.83;6.13;;;;;;;;;;5025231;28;20281;-76
2022/08/17 10:52:01;;;;;;;7.10;5.60;;;;;;;;;;5041504;28;20562;-76
2022/08/17 10:54:35;;;;;;;6.90;5.90;;;;;;;;;;5056501;28;20191;-71
2022/08/17 10:57:03;;;;;;;7.90;5.77;;;;;;;;;;5043689;28;20210;-73
2022/08/17 10:59:34;;;;;;;9.37;6.83;;;;;;;;;;5038653;28;20198;-72
2022/08/17 11:02:02;;;;;;;6.63;6.03;;;;;;;;;;5060935;28;20187;-71
2022/08/17 11:05:05;;;;;;;6.70;6.10;;;;;;;;;;5036746;28;20194;-72
2022/08/17 11:12:18;;;;;;;8.23;6.73;;;;;;;;;;5024142;28;20841;-77
2022/08/17 11:15:54;;;;;;;7.20;6.50;;;;;;;;;;4984293;28;20216;-77
2022/08/17 11:18:52;;;;;;;7.20;6.60;;;;;;;;;;5036446;28;20213;-73
2022/08/17 11:21:28;;;;;;;7.87;7.07;;;;;;;;;;5027582;28;20233;-77
2022/08/17 11:23:56;;;;;;;8.33;7.07;;;;;;;;;;5042626;28;20244;-77
2022/08/17 11:26:25;;;;;;;7.57;6.73;;;;;;;;;;5044204;28;20293;-78
2022/08/17 11:28:58;;;;;;;8.77;6.90;;;;;;;;;;5046629;28;20199;-76
2022/08/17 11:31:43;;;;;;;10.10;7.77;;;;;;;;;;5045154;28;20166;-73
2022/08/17 11:34:16;;;;;;;10.00;7.63;;;;;;;;;;5032560;28;20565;-74
2022/08/17 11:37:02;;;;;;;8.20;7.27;;;;;;;;;;5043553;28;20222;-73
2022/08/17 11:39:29;;;;;;;8.97;7.30;;;;;;;;;;5042139;28;20591;-74
2022/08/17 11:42:27;;;;;;;7.90;7.17;;;;;;;;;;5043485;28;20257;-72
2022/08/17 11:45:19;;;;;;;7.67;6.97;;;;;;;;;;5044053;28;20183;-72
2022/08/17 11:54:07;;;;;;;7.20;6.60;;;;;;;;;;5042833;28;20296;-74
2022/08/17 11:56:55;;;;;;;9.40;7.53;;;;;;;;;;5028931;28;20214;-69
2022/08/17 11:59:31;;;;;;;7.97;6.90;;;;;;;;;;5041432;28;20191;-72
2022/08/17 12:02:18;;;;;;;7.93;7.17;;;;;;;;;;5048225;28;20206;-71
2022/08/17 12:05:00;;;;;;;8.00;7.20;;;;;;;;;;5040801;28;20690;-72
2022/08/17 12:07:28;;;;;;;7.73;6.87;;;;;;;;;;5061196;28;20240;-70
2022/08/17 12:09:56;;;;;;;7.20;6.50;;;;;;;;;;5062868;28;20186;-72
2022/08/17 12:12:28;;;;;;;7.30;6.70;;;;;;;;;;5044537;28;20363;-73
2022/08/17 12:14:56;;;;;;;6.97;6.27;;;;;;;;;;5062364;28;20250;-74
2022/08/17 12:17:36;;;;;;;8.10;7.30;;;;;;;;;;5062467;28;20212;-70
2022/08/17 12:20:14;;;;;;;6.90;6.30;;;;;;;;;;5042259;28;20195;-76
2022/08/17 12:22:44;;;;;;;7.43;6.73;;;;;;;;;;5043539;28;20742;-74
2022/08/17 12:25:19;;;;;;;9.33;6.53;;;;;;;;;;5016180;28;20191;-74
2022/08/17 12:27:46;;;;;;;7.33;6.63;;;;;;;;;;5043795;28;20233;-71
2022/08/17 12:30:34;;;;;;;7.13;6.43;;;;;;;;;;5045708;28;20202;-75
2022/08/17 12:33:09;;;;;;;7.60;6.77;;;;;;;;;;5044441;28;20780;-75
2022/08/17 12:35:37;;;;;;;7.37;6.67;;;;;;;;;;5061465;28;20752;-72
2022/08/17 12:38:07;;;;;;;7.83;6.30;;;;;;;;;;5042870;28;21304;-72
2022/08/17 12:40:55;;;;;;;6.73;6.10;;;;;;;;;;5046685;28;20205;-73
2022/08/17 12:43:40;;;;;;;7.03;6.33;;;;;;;;;;5047341;28;20193;-76
2022/08/17 12:46:07;;;;;;;6.97;6.30;;;;;;;;;;5062232;28;20251;-76
2022/08/17 12:48:41;;;;;;;7.00;6.30;;;;;;;;;;5059954;28;20193;-77
2022/08/17 12:51:27;;;;;;;6.43;5.63;;;;;;;;;;5063044;28;20201;-76
2022/08/17 12:53:58;;;;;;;8.03;6.27;;;;;;;;;;5044488;28;20269;-75
2022/08/17 12:56:25;;;;;;;7.60;6.50;;;;;;;;;;5062719;28;20623;-75
2022/08/17 12:58:56;;;;;;;6.27;5.67;;;;;;;;;;5044278;28;20367;-73
2022/08/17 13:01:23;;;;;;;6.23;5.20;;;;;;;;;;5062741;28;20193;-71
2022/08/17 13:03:53;;;;;;;6.43;5.30;;;;;;;;;;5061854;28;20293;-77
2022/08/17 13:06:41;;;;;;;5.83;5.20;;;;;;;;;;5042805;28;20258;-74
2022/08/17 13:09:10;;;;;;;6.30;5.50;;;;;;;;;;5061251;28;20190;-73
2022/08/17 13:11:44;;;;;;;6.23;5.27;;;;;;;;;;5025550;28;20194;-75
2022/08/17 13:14:12;;;;;;;5.97;5.33;;;;;;;;;;5061270;28;20209;-73
2022/08/17 13:16:45;;;;;;;6.67;5.17;;;;;;;;;;5047319;28;20267;-77
2022/08/17 13:19:31;;;;;;;6.83;5.23;;;;;;;;;;5060304;28;20190;-76
2022/08/17 13:22:08;;;;;;;5.10;4.60;;;;;;;;;;5062092;28;20190;-76
2022/08/17 13:24:35;;;;;;;5.83;5.00;;;;;;;;;;5061866;28;20546;-76
2022/08/17 13:27:06;;;;;;;7.47;5.57;;;;;;;;;;5062424;28;20198;-77
2022/08/17 13:29:34;;;;;;;5.97;5.30;;;;;;;;;;5044267;28;20196;-76
2022/08/17 13:32:05;;;;;;;5.47;4.97;;;;;;;;;;5063140;28;20214;-76
2022/08/17 13:34:40;;;;;;;5.67;5.10;;;;;;;;;;5044771;28;20200;-76
2022/08/17 13:37:31;;;;;;;6.63;5.30;;;;;;;;;;5060942;28;20201;-77
2022/08/17 13:39:58;;;;;;;6.30;5.30;;;;;;;;;;5042584;28;20738;-77
2022/08/17 13:42:28;;;;;;;6.87;6.17;;;;;;;;;;5060818;28;20199;-77
2022/08/17 13:44:55;;;;;;;8.73;6.30;;;;;;;;;;5064856;28;20197;-72
2022/08/17 13:47:23;;;;;;;6.50;5.90;;;;;;;;;;5051287;28;20268;-73
2022/08/17 13:50:18;;;;;;;7.87;5.80;;;;;;;;;;5068786;28;20182;-70
2022/08/17 13:52:45;;;;;;;8.77;5.87;;;;;;;;;;5068920;28;20185;-69
2022/08/17 13:55:18;;;;;;;6.67;5.37;;;;;;;;;;5068651;28;20190;-69
2022/08/17 13:57:49;;;;;;;6.47;5.70;;;;;;;;;;5069430;28;20214;-69
2022/08/17 14:00:34;;;;;;;6.30;5.70;;;;;;;;;;5054108;28;20246;-70
2022/08/17 14:03:01;;;;;;;8.70;5.90;;;;;;;;;;5069141;28;20186;-70
2022/08/17 14:05:28;;;;;;;5.87;5.30;;;;;;;;;;5048377;28;20198;-70
2022/08/17 14:07:56;;;;;;;6.40;5.50;;;;;;;;;;5027603;28;20269;-70
2022/08/17 14:10:24;;;;;;;7.13;5.83;;;;;;;;;;5031114;28;20718;-71
2022/08/17 14:13:08;;;;;;;7.20;5.90;;;;;;;;;;5049232;28;20273;-70
2022/08/17 14:15:36;;;;;;;6.87;5.43;;;;;;;;;;5049588;28;20218;-70
2022/08/17 14:18:21;;;;;;;5.70;5.20;;;;;;;;;;5035027;28;20273;-70
2022/08/17 14:21:08;;;;;;;7.30;5.93;;;;;;;;;;5022541;28;20201;-72
2022/08/17 14:23:52;;;;;;;6.80;5.70;;;;;;;;;;5031747;28;20538;-71
2022/08/17 14:26:20;;;;;;;5.73;5.10;;;;;;;;;;5052399;28;20218;-71
2022/08/17 14:29:06;;;;;;;5.77;5.10;;;;;;;;;;5052300;28;20256;-70
2022/08/17 14:31:42;;;;;;;5.80;5.23;;;;;;;;;;5052516;28;20276;-70
2022/08/17 14:34:27;;;;;;;5.57;5.10;;;;;;;;;;5047400;28;20183;-70
2022/08/17 14:36:55;;;;;;;6.33;5.37;;;;;;;;;;5052337;28;20254;-70
2022/08/17 14:39:22;;;;;;;7.33;5.50;;;;;;;;;;5052648;28;20222;-70
2022/08/17 14:41:49;;;;;;;6.20;5.60;;;;;;;;;;5031179;28;20314;-70
2022/08/17 14:44:16;;;;;;;5.93;5.43;;;;;;;;;;5051268;28;20199;-70
2022/08/17 14:46:44;;;;;;;7.27;5.60;;;;;;;;;;5052420;28;20323;-70
2022/08/17 14:49:11;;;;;;;7.50;5.00;;;;;;;;;;5052221;28;20197;-71
2022/08/17 14:51:40;;;;;;;5.37;4.87;;;;;;;;;;5052122;28;20590;-71
2022/08/17 14:54:24;;;;;;;6.47;5.60;;;;;;;;;;5052141;28;20190;-71
2022/08/17 14:57:00;;;;;;;6.23;5.63;;;;;;;;;;5051936;28;20287;-71
2022/08/17 14:59:47;;;;;;;6.00;5.50;;;;;;;;;;5046130;28;20213;-71
2022/08/17 15:02:22;;;;;;;6.47;5.87;;;;;;;;;;5035345;28;20201;-71
2022/08/17 15:05:00;;;;;;;7.93;5.73;;;;;;;;;;5051531;28;20198;-71
2022/08/17 15:07:28;;;;;;;6.63;5.90;;;;;;;;;;5068589;28;20218;-70
2022/08/17 15:09:57;;;;;;;6.60;6.00;;;;;;;;;;5071854;28;20193;-70
2022/08/17 15:12:26;;;;;;;8.50;6.30;;;;;;;;;;5072074;28;20596;-73
2022/08/17 15:15:01;;;;;;;7.43;6.70;;;;;;;;;;5054585;28;20303;-74
2022/08/17 15:17:45;;;;;;;7.07;6.40;;;;;;;;;;5071773;28;20349;-72
2022/08/17 15:20:21;;;;;;;7.93;6.20;;;;;;;;;;5057356;28;20201;-73
2022/08/17 15:23:08;;;;;;;8.73;6.50;;;;;;;;;;5071396;28;20705;-74
2022/08/17 15:25:35;;;;;;;6.93;6.03;;;;;;;;;;5071329;28;20221;-73
2022/08/17 15:28:02;;;;;;;9.27;7.47;;;;;;;;;;5053037;28;20287;-73
2022/08/17 15:30:29;;;;;;;8.23;6.17;;;;;;;;;;5070488;28;20201;-75
2022/08/17 15:32:56;;;;;;;7.63;6.93;;;;;;;;;;5052428;28;20196;-72
2022/08/17 15:35:27;;;;;;;7.07;6.33;;;;;;;;;;5067828;28;20213;-72
2022/08/17 15:37:59;;;;;;;8.17;6.70;;;;;;;;;;5059989;28;20238;-74
2022/08/17 15:40:36;;;;;;;8.20;7.50;;;;;;;;;;5051384;28;20205;-73
2022/08/17 15:43:06;;;;;;;8.93;7.00;;;;;;;;;;5067118;28;20273;-74
2022/08/17 15:45:34;;;;;;;8.53;7.50;;;;;;;;;;5050762;28;20196;-73
2022/08/17 15:48:01;;;;;;;8.40;7.00;;;;;;;;;;5033252;28;20728;-73
2022/08/17 15:50:28;;;;;;;7.53;6.37;;;;;;;;;;5048555;28;20212;-73
2022/08/17 15:52:56;;;;;;;9.47;6.90;;;;;;;;;;5050489;28;20192;-73
2022/08/17 15:55:25;;;;;;;7.10;6.33;;;;;;;;;;5036303;28;20195;-73
2022/08/17 15:57:51;;;;;;;7.47;6.67;;;;;;;;;;5068006;28;20295;-72
2022/08/17 16:00:22;;;;;;;8.73;6.93;;;;;;;;;;5062170;28;20200;-73
2022/08/17 16:02:50;;;;;;;9.93;6.60;;;;;;;;;;5070644;28;20191;-72
2022/08/17 16:05:37;;;;;;;8.00;6.53;;;;;;;;;;5064645;28;20348;-73
2022/08/17 16:08:06;;;;;;;7.63;6.50;;;;;;;;;;5070526;28;20668;-73
2022/08/17 16:10:33;;;;;;;26.63;7.90;;;;;;;;;;5045778;28;20207;-72